In Rescue
 
Open Full Screen Window  High Contrast Mode
Wind Gusting 00 knots
11
November 21, 2022 9:15 AM CST
Weather Information
Wind Direction
  310 °
Wind Speed
  11 kt (13 mph)
Wind Gust
  00 kt (0 mph)
Altimeter
30.13 in
Visibility
10 SM
Temperature
-03° C
27° F
Dewpoint
-08° C
18° F
Humidity
69%
1hr Rain Fall
00.00 in.
24hr Rain Fall
00.00 in.
Sky Condition
Clear
VFR

METAR KULM 211515Z AUTO 31011KT 10SM CLR M03/M08 A3013 RMK AO2

FAA Disclaimer: The data displayed is for advisory purposes only and is not to be used for flight planning or operations.